Time,TemperatureF,DewpointF,PressureIn,WindDirection,WindDirectionDegrees,WindSpeedMPH,WindSpeedGustMPH,Humidity,HourlyPrecipIn,Conditions,Clouds,dailyrainin,SoftwareType,DateUTC
2013-07-14 00:02:00,72.0,67.0,30.19,East,98,2.0,5.0,83,0.00,,,0.00,,2013-07-14 04:02:00,
2013-07-14 00:11:00,72.0,67.0,30.19,East,96,1.0,3.0,83,0.00,,,0.00,,2013-07-14 04:11:00,
2013-07-14 00:22:00,72.0,67.0,30.18,East,96,4.0,7.0,85,0.00,,,0.00,,2013-07-14 04:22:00,
2013-07-14 00:32:00,71.0,66.0,30.19,East,88,6.0,8.0,85,0.00,,,0.00,,2013-07-14 04:32:00,
2013-07-14 00:42:00,72.0,67.0,30.19,East,94,5.0,9.0,85,0.00,,,0.00,,2013-07-14 04:42:00,
2013-07-14 00:53:00,71.0,67.0,30.19,East,94,6.0,11.0,86,0.00,,,0.00,,2013-07-14 04:53:00,
2013-07-14 01:02:00,71.0,67.0,30.19,East,88,4.0,9.0,86,0.00,,,0.00,,2013-07-14 05:02:00,
2013-07-14 01:23:00,70.0,66.0,30.18,ENE,71,2.0,5.0,88,0.00,,,0.00,,2013-07-14 05:23:00,
2013-07-14 01:32:00,70.0,66.0,30.18,ESE,102,2.0,5.0,88,0.00,,,0.00,,2013-07-14 05:32:00,
2013-07-14 01:43:00,70.0,66.0,30.19,ESE,108,2.0,5.0,88,0.00,,,0.00,,2013-07-14 05:43:00,
2013-07-14 01:53:00,70.0,67.0,30.18,East,92,1.0,4.0,89,0.00,,,0.00,,2013-07-14 05:53:00,
2013-07-14 02:01:00,69.0,66.0,30.18,ENE,73,1.0,4.0,90,0.00,,,0.00,,2013-07-14 06:01:00,
2013-07-14 02:11:00,69.0,66.0,30.19,NE,34,1.0,3.0,90,0.00,,,0.00,,2013-07-14 06:11:00,
2013-07-14 02:22:00,69.0,66.0,30.19,East,86,2.0,5.0,90,0.00,,,0.00,,2013-07-14 06:22:00,
2013-07-14 02:32:00,69.0,66.0,30.19,ENE,72,3.0,5.0,90,0.00,,,0.00,,2013-07-14 06:32:00,
2013-07-14 02:42:00,69.0,66.0,30.19,East,88,2.0,5.0,90,0.00,,,0.00,,2013-07-14 06:42:00,
2013-07-14 02:53:00,69.0,66.0,30.19,East,98,3.0,6.0,90,0.00,,,0.00,,2013-07-14 06:53:00,
2013-07-14 03:02:00,69.0,66.0,30.19,ESE,105,2.0,4.0,91,0.00,,,0.00,,2013-07-14 07:02:00,
2013-07-14 03:12:00,68.0,65.0,30.18,ESE,106,2.0,4.0,91,0.00,,,0.00,,2013-07-14 07:12:00,
2013-07-14 03:22:00,68.0,66.0,30.18,ESE,105,2.0,4.0,92,0.00,,,0.00,,2013-07-14 07:22:00,
2013-07-14 03:33:00,68.0,66.0,30.18,ESE,103,1.0,3.0,92,0.00,,,0.00,,2013-07-14 07:33:00,
2013-07-14 03:43:00,68.0,66.0,30.18,East,85,3.0,6.0,92,0.00,,,0.00,,2013-07-14 07:43:00,
2013-07-14 03:53:00,67.0,65.0,30.18,East,97,4.0,6.0,93,0.00,,,0.00,,2013-07-14 07:53:00,
2013-07-14 04:01:00,67.0,65.0,30.17,ESE,110,4.0,5.0,93,0.00,,,0.00,,2013-07-14 08:01:00,
2013-07-14 04:11:00,67.0,65.0,30.17,East,100,4.0,8.0,94,0.00,,,0.00,,2013-07-14 08:11:00,
2013-07-14 04:22:00,67.0,65.0,30.17,ESE,102,5.0,7.0,94,0.00,,,0.00,,2013-07-14 08:22:00,
2013-07-14 04:32:00,67.0,65.0,30.18,East,94,3.0,7.0,94,0.00,,,0.00,,2013-07-14 08:32:00,
2013-07-14 04:42:00,67.0,65.0,30.17,ESE,103,3.0,8.0,94,0.00,,,0.00,,2013-07-14 08:42:00,
2013-07-14 04:53:00,67.0,65.0,30.18,ESE,113,2.0,4.0,94,0.00,,,0.00,,2013-07-14 08:53:00,
2013-07-14 05:01:00,67.0,65.0,30.18,ENE,78,3.0,5.0,94,0.00,,,0.00,,2013-07-14 09:01:00,
2013-07-14 05:11:00,67.0,66.0,30.19,ENE,71,5.0,8.0,95,0.00,,,0.00,,2013-07-14 09:11:00,
2013-07-14 05:22:00,67.0,66.0,30.19,East,83,2.0,7.0,95,0.00,,,0.00,,2013-07-14 09:22:00,
2013-07-14 05:32:00,67.0,66.0,30.19,East,90,2.0,5.0,95,0.00,,,0.00,,2013-07-14 09:32:00,
2013-07-14 05:42:00,67.0,66.0,30.20,ESE,103,0.0,3.0,95,0.00,,,0.00,,2013-07-14 09:42:00,
2013-07-14 05:52:00,67.0,66.0,30.20,ENE,77,2.0,5.0,95,0.00,,,0.00,,2013-07-14 09:52:00,
2013-07-14 06:01:00,67.0,66.0,30.21,ESE,107,3.0,6.0,95,0.00,,,0.00,,2013-07-14 10:01:00,
2013-07-14 06:12:00,67.0,66.0,30.21,ENE,67,2.0,3.0,95,0.00,,,0.00,,2013-07-14 10:12:00,
2013-07-14 06:22:00,67.0,66.0,30.21,ESE,111,2.0,5.0,95,0.00,,,0.00,,2013-07-14 10:22:00,
2013-07-14 06:32:00,67.0,66.0,30.21,ENE,70,3.0,5.0,95,0.00,,,0.00,,2013-07-14 10:32:00,
2013-07-14 06:42:00,67.0,66.0,30.21,ENE,78,3.0,7.0,95,0.00,,,0.00,,2013-07-14 10:42:00,
2013-07-14 06:53:00,67.0,66.0,30.21,ENE,75,4.0,8.0,95,0.00,,,0.00,,2013-07-14 10:53:00,
2013-07-14 07:02:00,67.0,66.0,30.21,East,94,4.0,7.0,95,0.00,,,0.00,,2013-07-14 11:02:00,
2013-07-14 07:11:00,67.0,66.0,30.21,ESE,102,4.0,7.0,95,0.00,,,0.00,,2013-07-14 11:11:00,
2013-07-14 07:22:00,67.0,65.0,30.22,East,87,3.0,5.0,94,0.00,,,0.00,,2013-07-14 11:22:00,
2013-07-14 07:32:00,68.0,66.0,30.22,ESE,104,3.0,7.0,94,0.00,,,0.00,,2013-07-14 11:32:00,
2013-07-14 07:43:00,68.0,66.0,30.22,East,96,4.0,8.0,93,0.00,,,0.00,,2013-07-14 11:43:00,
2013-07-14 07:53:00,68.0,66.0,30.22,East,81,2.0,7.0,93,0.00,,,0.00,,2013-07-14 11:53:00,
2013-07-14 08:02:00,69.0,67.0,30.22,ESE,103,5.0,7.0,92,0.00,,,0.00,,2013-07-14 12:02:00,
2013-07-14 08:11:00,69.0,66.0,30.23,East,86,5.0,9.0,91,0.00,,,0.00,,2013-07-14 12:11:00,
2013-07-14 08:22:00,70.0,67.0,30.23,ESE,103,5.0,8.0,90,0.00,,,0.00,,2013-07-14 12:22:00,
2013-07-14 08:33:00,71.0,68.0,30.23,East,96,5.0,8.0,89,0.00,,,0.00,,2013-07-14 12:33:00,
2013-07-14 08:52:00,72.0,68.0,30.23,ESE,115,6.0,10.0,87,0.00,,,0.00,,2013-07-14 12:52:00,
2013-07-14 09:01:00,73.0,69.0,30.22,East,84,4.0,7.0,86,0.00,,,0.00,,2013-07-14 13:01:00,
2013-07-14 09:11:00,73.0,68.0,30.23,ESE,114,7.0,9.0,84,0.00,,,0.00,,2013-07-14 13:11:00,
2013-07-14 09:22:00,74.0,69.0,30.23,East,97,5.0,10.0,84,0.00,,,0.00,,2013-07-14 13:22:00,
2013-07-14 09:32:00,75.0,69.0,30.23,East,99,6.0,11.0,83,0.00,,,0.00,,2013-07-14 13:32:00,
2013-07-14 09:42:00,75.0,69.0,30.23,East,89,5.0,10.0,82,0.00,,,0.00,,2013-07-14 13:42:00,
2013-07-14 09:53:00,76.0,70.0,30.23,East,100,5.0,10.0,81,0.00,,,0.00,,2013-07-14 13:53:00,
2013-07-14 10:02:00,76.0,69.0,30.23,SE,133,5.0,9.0,80,0.00,,,0.00,,2013-07-14 14:02:00,
2013-07-14 10:11:00,77.0,70.0,30.23,SE,125,3.0,9.0,79,0.00,,,0.00,,2013-07-14 14:11:00,
2013-07-14 10:23:00,78.0,71.0,30.22,SE,128,4.0,9.0,78,0.00,,,0.00,,2013-07-14 14:23:00,
2013-07-14 10:33:00,78.0,70.0,30.23,East,91,4.0,11.0,77,0.00,,,0.00,,2013-07-14 14:33:00,
2013-07-14 10:43:00,78.0,70.0,30.22,ESE,123,7.0,10.0,77,0.00,,,0.00,,2013-07-14 14:43:00,
2013-07-14 10:53:00,79.0,71.0,30.22,SE,124,6.0,10.0,77,0.00,,,0.00,,2013-07-14 14:53:00,
2013-07-14 11:01:00,79.0,70.0,30.22,ESE,117,6.0,10.0,75,0.00,,,0.00,,2013-07-14 15:01:00,
2013-07-14 11:12:00,80.0,72.0,30.22,ESE,104,4.0,9.0,76,0.00,,,0.00,,2013-07-14 15:12:00,
2013-07-14 11:22:00,80.0,71.0,30.23,ESE,107,6.0,9.0,75,0.00,,,0.00,,2013-07-14 15:22:00,
2013-07-14 11:32:00,81.0,71.0,30.22,SE,136,5.0,10.0,72,0.00,,,0.00,,2013-07-14 15:32:00,
2013-07-14 11:42:00,81.0,72.0,30.22,SE,124,3.0,10.0,74,0.00,,,0.00,,2013-07-14 15:42:00,
2013-07-14 11:53:00,82.0,72.0,30.22,East,92,6.0,9.0,71,0.00,,,0.00,,2013-07-14 15:53:00,
2013-07-14 12:01:00,81.0,70.0,30.23,SE,129,8.0,11.0,70,0.00,,,0.00,,2013-07-14 16:01:00,
2013-07-14 12:11:00,82.0,71.0,30.23,ESE,105,4.0,10.0,69,0.00,,,0.00,,2013-07-14 16:11:00,
2013-07-14 12:22:00,82.0,70.0,30.23,SE,145,8.0,12.0,68,0.00,,,0.00,,2013-07-14 16:22:00,
2013-07-14 12:32:00,82.0,69.0,30.23,SE,126,8.0,13.0,66,0.00,,,0.00,,2013-07-14 16:32:00,
2013-07-14 12:43:00,82.0,70.0,30.23,ESE,122,7.0,12.0,67,0.00,,,0.00,,2013-07-14 16:43:00,
2013-07-14 12:53:00,82.0,70.0,30.22,SSE,152,6.0,12.0,67,0.00,,,0.00,,2013-07-14 16:53:00,
2013-07-14 13:02:00,83.0,71.0,30.23,ESE,111,6.0,13.0,68,0.00,,,0.00,,2013-07-14 17:02:00,
2013-07-14 13:11:00,83.0,71.0,30.23,East,93,5.0,12.0,67,0.00,,,0.00,,2013-07-14 17:11:00,
2013-07-14 13:22:00,83.0,70.0,30.23,ESE,112,6.0,10.0,66,0.00,,,0.00,,2013-07-14 17:22:00,
2013-07-14 13:32:00,83.0,71.0,30.22,ENE,59,4.0,9.0,67,0.00,,,0.00,,2013-07-14 17:32:00,
2013-07-14 13:43:00,84.0,71.0,30.22,SE,146,4.0,12.0,65,0.00,,,0.00,,2013-07-14 17:43:00,
2013-07-14 13:53:00,84.0,70.0,30.22,East,89,4.0,7.0,63,0.00,,,0.00,,2013-07-14 17:53:00,
2013-07-14 14:01:00,84.0,70.0,30.22,East,79,8.0,11.0,63,0.00,,,0.00,,2013-07-14 18:01:00,
2013-07-14 14:11:00,84.0,71.0,30.22,SE,130,3.0,11.0,65,0.00,,,0.00,,2013-07-14 18:11:00,
2013-07-14 14:22:00,85.0,70.0,30.22,ESE,113,6.0,11.0,61,0.00,,,0.00,,2013-07-14 18:22:00,
2013-07-14 14:32:00,85.0,70.0,30.22,ESE,117,6.0,10.0,62,0.00,,,0.00,,2013-07-14 18:32:00,
2013-07-14 14:42:00,84.0,70.0,30.22,ESE,116,4.0,9.0,64,0.00,,,0.00,,2013-07-14 18:42:00,
2013-07-14 14:52:00,85.0,70.0,30.22,SSE,159,3.0,7.0,61,0.00,,,0.00,,2013-07-14 18:52:00,
2013-07-14 15:01:00,85.0,70.0,30.22,ENE,73,2.0,8.0,62,0.00,,,0.00,,2013-07-14 19:01:00,
2013-07-14 15:12:00,85.0,71.0,30.22,SE,126,7.0,11.0,64,0.00,,,0.00,,2013-07-14 19:12:00,
2013-07-14 15:22:00,85.0,70.0,30.22,ESE,113,4.0,11.0,61,0.00,,,0.00,,2013-07-14 19:22:00,
2013-07-14 15:32:00,86.0,70.0,30.22,East,83,4.0,7.0,60,0.00,,,0.00,,2013-07-14 19:32:00,
2013-07-14 15:43:00,86.0,71.0,30.22,SE,136,8.0,11.0,62,0.00,,,0.00,,2013-07-14 19:43:00,
2013-07-14 15:53:00,85.0,71.0,30.22,ESE,103,3.0,10.0,64,0.00,,,0.00,,2013-07-14 19:53:00,
2013-07-14 16:02:00,86.0,71.0,30.22,ESE,116,6.0,11.0,62,0.00,,,0.00,,2013-07-14 20:02:00,
2013-07-14 16:11:00,85.0,71.0,30.22,ENE,69,5.0,8.0,63,0.00,,,0.00,,2013-07-14 20:11:00,
2013-07-14 16:22:00,85.0,71.0,30.21,SE,124,7.0,11.0,64,0.00,,,0.00,,2013-07-14 20:22:00,
2013-07-14 16:32:00,85.0,71.0,30.21,NE,55,5.0,11.0,63,0.00,,,0.00,,2013-07-14 20:32:00,
2013-07-14 16:43:00,85.0,72.0,30.21,East,95,4.0,8.0,65,0.00,,,0.00,,2013-07-14 20:43:00,
2013-07-14 16:53:00,85.0,72.0,30.21,East,92,5.0,7.0,65,0.00,,,0.00,,2013-07-14 20:53:00,
2013-07-14 17:02:00,86.0,72.0,30.21,ESE,122,2.0,6.0,64,0.00,,,0.00,,2013-07-14 21:02:00,
2013-07-14 17:11:00,86.0,72.0,30.21,East,94,5.0,10.0,63,0.00,,,0.00,,2013-07-14 21:11:00,
2013-07-14 17:22:00,85.0,71.0,30.21,ENE,65,6.0,10.0,64,0.00,,,0.00,,2013-07-14 21:22:00,
2013-07-14 17:32:00,85.0,71.0,30.21,East,82,7.0,8.0,64,0.00,,,0.00,,2013-07-14 21:32:00,
2013-07-14 17:43:00,86.0,72.0,30.21,East,92,8.0,11.0,63,0.00,,,0.00,,2013-07-14 21:43:00,
2013-07-14 17:52:00,86.0,73.0,30.21,ENE,70,3.0,8.0,65,0.00,,,0.00,,2013-07-14 21:52:00,
2013-07-14 18:01:00,85.0,72.0,30.21,East,89,2.0,5.0,66,0.00,,,0.00,,2013-07-14 22:01:00,
2013-07-14 18:11:00,85.0,72.0,30.21,ENE,67,2.0,4.0,66,0.00,,,0.00,,2013-07-14 22:11:00,
2013-07-14 18:22:00,85.0,73.0,30.20,ENE,65,4.0,7.0,67,0.00,,,0.00,,2013-07-14 22:22:00,
2013-07-14 18:32:00,85.0,73.0,30.21,East,79,3.0,7.0,68,0.00,,,0.00,,2013-07-14 22:32:00,
2013-07-14 18:42:00,84.0,73.0,30.21,East,84,2.0,8.0,69,0.00,,,0.00,,2013-07-14 22:42:00,
2013-07-14 18:53:00,84.0,73.0,30.20,ENE,71,3.0,8.0,69,0.00,,,0.00,,2013-07-14 22:53:00,
2013-07-14 19:01:00,83.0,73.0,30.20,ENE,66,3.0,5.0,71,0.00,,,0.00,,2013-07-14 23:01:00,
2013-07-14 19:11:00,83.0,73.0,30.20,ENE,61,5.0,8.0,71,0.00,,,0.00,,2013-07-14 23:11:00,
2013-07-14 19:22:00,83.0,73.0,30.20,ENE,76,3.0,8.0,71,0.00,,,0.00,,2013-07-14 23:22:00,
2013-07-14 19:32:00,83.0,73.0,30.20,ENE,67,3.0,5.0,72,0.00,,,0.00,,2013-07-14 23:32:00,
2013-07-14 19:42:00,83.0,73.0,30.20,ENE,78,4.0,8.0,72,0.00,,,0.00,,2013-07-14 23:42:00,
2013-07-14 19:53:00,84.0,74.0,30.20,ENE,69,7.0,11.0,71,0.00,,,0.00,,2013-07-14 23:53:00,
2013-07-14 20:02:00,84.0,73.0,30.20,East,89,8.0,11.0,70,0.00,,,0.00,,2013-07-15 00:02:00,
2013-07-14 20:11:00,84.0,73.0,30.20,ENE,63,5.0,9.0,70,0.00,,,0.00,,2013-07-15 00:11:00,
2013-07-14 20:22:00,83.0,73.0,30.21,ENE,71,4.0,9.0,71,0.00,,,0.00,,2013-07-15 00:22:00,
2013-07-14 20:32:00,83.0,73.0,30.21,ESE,103,2.0,7.0,72,0.00,,,0.00,,2013-07-15 00:32:00,
2013-07-14 20:43:00,83.0,73.0,30.22,ESE,108,1.0,4.0,72,0.00,,,0.00,,2013-07-15 00:43:00,
2013-07-14 20:53:00,83.0,73.0,30.22,ENE,78,1.0,5.0,73,0.00,,,0.00,,2013-07-15 00:53:00,
2013-07-14 21:01:00,82.0,73.0,30.22,East,92,1.0,3.0,74,0.00,,,0.00,,2013-07-15 01:01:00,
2013-07-14 21:11:00,81.0,72.0,30.22,ESE,105,3.0,5.0,75,0.00,,,0.00,,2013-07-15 01:11:00,
2013-07-14 21:22:00,81.0,73.0,30.22,East,96,3.0,4.0,76,0.00,,,0.00,,2013-07-15 01:22:00,
2013-07-14 21:32:00,80.0,72.0,30.22,East,82,1.0,3.0,78,0.00,,,0.00,,2013-07-15 01:32:00,
2013-07-14 21:43:00,80.0,73.0,30.22,East,88,1.0,3.0,79,0.00,,,0.00,,2013-07-15 01:43:00,
2013-07-14 21:53:00,79.0,72.0,30.22,East,88,0.0,2.0,80,0.00,,,0.00,,2013-07-15 01:53:00,
2013-07-14 22:02:00,79.0,72.0,30.22,East,88,0.0,1.0,80,0.00,,,0.00,,2013-07-15 02:02:00,
2013-07-14 22:11:00,79.0,72.0,30.22,East,88,1.0,2.0,80,0.00,,,0.00,,2013-07-15 02:11:00,
2013-07-14 22:22:00,79.0,72.0,30.23,East,88,0.0,1.0,80,0.00,,,0.00,,2013-07-15 02:22:00,
2013-07-14 22:32:00,79.0,73.0,30.23,East,88,0.0,1.0,81,0.00,,,0.00,,2013-07-15 02:32:00,
2013-07-14 22:42:00,78.0,72.0,30.23,East,88,0.0,1.0,82,0.00,,,0.00,,2013-07-15 02:42:00,
2013-07-14 22:53:00,78.0,72.0,30.24,East,88,0.0,0.0,83,0.00,,,0.00,,2013-07-15 02:53:00,
2013-07-14 23:02:00,77.0,71.0,30.24,East,88,0.0,1.0,83,0.00,,,0.00,,2013-07-15 03:02:00,
2013-07-14 23:11:00,77.0,72.0,30.24,East,88,0.0,1.0,84,0.00,,,0.00,,2013-07-15 03:11:00,
2013-07-14 23:22:00,77.0,72.0,30.24,East,88,0.0,2.0,85,0.00,,,0.00,,2013-07-15 03:22:00,
2013-07-14 23:32:00,76.0,72.0,30.24,East,92,1.0,3.0,86,0.00,,,0.00,,2013-07-15 03:32:00,
2013-07-14 23:43:00,76.0,72.0,30.24,East,92,1.0,2.0,86,0.00,,,0.00,,2013-07-15 03:43:00,
2013-07-14 23:53:00,76.0,72.0,30.24,East,86,1.0,3.0,86,0.00,,,0.00,,2013-07-15 03:53:00,